Time;durP1;ratioP1;P1;durP2;ratioP2;P2;SDS_P1;SDS_P2;PMS_P1;PMS_P2;Temp;Humidity;BMP_temperature;BMP_pressure;BME280_temperature;BME280_humidity;BME280_pressure;Samples;Min_cycle;Max_cycle;Signal;HPM_P1;HPM_P2
2021/06/14 00:02:11;;;;;;;7.65;2.75;;;;;;;15.53;82.37;98920.80;1752768;81;21047;-74
2021/06/14 00:04:38;;;;;;;3.10;1.85;;;;;;;15.52;81.94;98925.56;1754042;80;21134;-73
2021/06/14 00:07:04;;;;;;;2.52;2.02;;;;;;;15.53;82.02;98927.73;1751371;80;21339;-75
2021/06/14 00:09:31;;;;;;;10.58;2.20;;;;;;;15.54;81.90;98923.81;1751910;80;21776;-73
2021/06/14 00:11:58;;;;;;;3.45;2.30;;;;;;;15.54;81.62;98924.59;1752539;80;21003;-74
2021/06/14 00:14:24;;;;;;;5.08;2.62;;;;;;;15.54;81.76;98931.53;1738244;80;21022;-73
2021/06/14 00:16:51;;;;;;;2.83;1.90;;;;;;;15.55;81.60;98922.05;1744999;80;21063;-74
2021/06/14 00:19:17;;;;;;;10.15;2.87;;;;;;;15.58;81.80;98918.53;1750019;80;21046;-73
2021/06/14 00:21:45;;;;;;;3.17;2.70;;;;;;;15.63;81.65;98920.19;1746716;80;20996;-73
2021/06/14 00:24:12;;;;;;;4.50;2.10;;;;;;;15.64;81.25;98921.81;1738992;81;21539;-73
2021/06/14 00:26:38;;;;;;;4.00;2.30;;;;;;;15.64;81.59;98918.23;1733422;81;21036;-74
2021/06/14 00:29:05;;;;;;;2.70;2.22;;;;;;;15.63;81.18;98916.60;1735273;81;21059;-72
2021/06/14 00:31:31;;;;;;;3.17;1.95;;;;;;;15.51;81.09;98914.80;1728541;81;21485;-74
2021/06/14 00:33:57;;;;;;;4.17;2.02;;;;;;;15.43;81.42;98916.66;1733599;81;22111;-73
2021/06/14 00:36:25;;;;;;;4.60;2.25;;;;;;;15.41;81.38;98920.38;1728172;81;21153;-73
2021/06/14 00:38:53;;;;;;;4.00;1.85;;;;;;;15.42;81.64;98920.61;1748590;80;21067;-73
2021/06/14 00:41:19;;;;;;;3.60;1.72;;;;;;;15.45;81.52;98920.69;1742388;81;20989;-72
2021/06/14 00:43:48;;;;;;;2.58;1.90;;;;;;;15.47;81.42;98917.54;1736248;80;21043;-73
2021/06/14 00:46:14;;;;;;;3.87;2.10;;;;;;;15.47;81.52;98921.70;1754210;80;21157;-74
2021/06/14 00:48:42;;;;;;;2.65;1.82;;;;;;;15.42;81.13;98915.84;1753733;80;21007;-73
2021/06/14 00:51:09;;;;;;;4.85;1.77;;;;;;;15.41;81.45;98913.44;1754826;80;21059;-73
2021/06/14 00:53:40;;;;;;;3.20;1.98;;;;;;;15.45;81.45;98915.14;1743976;81;21505;-74
2021/06/14 00:56:12;;;;;;;4.13;1.93;;;;;;;15.44;80.97;98914.90;1750265;80;20987;-73
2021/06/14 00:58:40;;;;;;;3.75;1.90;;;;;;;15.47;81.09;98912.56;1752711;80;21659;-72
2021/06/14 01:01:07;;;;;;;2.70;1.77;;;;;;;15.52;80.96;98913.66;1743356;81;21099;-72
2021/06/14 01:03:35;;;;;;;2.85;1.82;;;;;;;15.56;80.68;98913.11;1745572;80;21114;-73
2021/06/14 01:06:07;;;;;;;5.53;2.20;;;;;;;15.60;80.01;98915.95;1748401;80;21136;-73
2021/06/14 01:08:38;;;;;;;4.28;1.77;;;;;;;15.52;79.20;98917.81;1744563;80;21074;-72
2021/06/14 01:11:42;;;;;;;5.03;1.47;;;;;;;15.42;79.35;98915.84;1735324;81;21140;-73
2021/06/14 01:14:37;;;;;;;3.77;1.87;;;;;;;15.39;79.50;98920.75;1746190;80;21545;-73
2021/06/14 01:17:21;;;;;;;2.25;1.90;;;;;;;15.41;79.42;98918.98;1753187;80;21524;-73
2021/06/14 01:20:09;;;;;;;;;;;;;;;15.42;79.17;98922.00;1731628;81;21107;-73
2021/06/14 01:23:18;;;;;;;4.67;1.50;;;;;;;15.37;78.90;98922.30;1737479;80;20475;-72
2021/06/14 01:26:07;;;;;;;3.12;1.67;;;;;;;15.37;79.11;98918.14;1743840;80;22813;-72
2021/06/14 01:28:36;;;;;;;3.67;1.90;;;;;;;15.39;78.66;98914.39;1745205;81;21048;-73
2021/06/14 01:31:04;;;;;;;3.58;1.82;;;;;;;15.37;78.37;98912.59;1743138;81;20977;-72
2021/06/14 01:33:33;;;;;;;3.05;1.98;;;;;;;15.36;78.27;98922.06;1739429;81;21012;-73
2021/06/14 01:36:29;;;;;;;3.90;1.95;;;;;;;15.36;78.22;98917.91;1674910;83;21020;-73
2021/06/14 01:38:56;;;;;;;3.75;1.82;;;;;;;15.39;77.97;98919.94;1708000;83;21155;-74
2021/06/14 01:41:27;;;;;;;3.60;1.60;;;;;;;15.43;77.96;98916.66;1706379;82;21548;-74
2021/06/14 01:43:55;;;;;;;3.40;1.77;;;;;;;15.45;77.90;98920.69;1705757;82;21053;-71
2021/06/14 01:46:26;;;;;;;5.03;1.85;;;;;;;15.44;76.38;98924.61;1752497;80;21046;-73
2021/06/14 01:48:54;;;;;;;4.53;2.00;;;;;;;15.35;76.82;98924.06;1697765;82;21013;-73
2021/06/14 01:51:26;;;;;;;3.75;1.90;;;;;;;15.33;77.14;98929.16;1701755;82;21097;-74
2021/06/14 01:54:06;;;;;;;4.22;1.80;;;;;;;15.30;76.97;98930.69;1705021;83;21099;-75
2021/06/14 01:56:46;;;;;;;3.35;1.85;;;;;;;15.30;77.39;98934.85;1687170;81;21106;-74
2021/06/14 01:59:27;;;;;;;2.55;1.65;;;;;;;15.31;77.27;98939.25;1686098;81;21068;-75
2021/06/14 02:01:55;;;;;;;3.10;1.75;;;;;;;15.33;77.55;98936.92;1709391;81;21083;-74
2021/06/14 02:04:22;;;;;;;4.28;1.55;;;;;;;15.39;77.12;98943.53;1755428;80;21148;-73
2021/06/14 02:07:03;;;;;;;4.30;1.90;;;;;;;15.38;76.97;98943.33;1745536;81;21043;-73
2021/06/14 02:09:30;;;;;;;3.77;1.90;;;;;;;15.37;77.10;98947.28;1746050;80;21013;-76
2021/06/14 02:11:59;;;;;;;5.05;1.92;;;;;;;15.40;77.18;98946.55;1755643;81;21049;-73
2021/06/14 02:14:30;;;;;;;3.50;1.77;;;;;;;15.43;77.17;98949.97;1740914;80;21058;-74
2021/06/14 02:16:59;;;;;;;4.72;2.10;;;;;;;15.44;77.25;98946.01;1745339;80;21129;-73
2021/06/14 02:19:25;;;;;;;6.83;1.90;;;;;;;15.45;77.39;98942.89;1752870;80;21039;-72
2021/06/14 02:21:52;;;;;;;3.80;2.00;;;;;;;15.46;77.57;98945.06;1753819;80;21533;-71
2021/06/14 02:24:19;;;;;;;4.92;2.47;;;;;;;15.47;77.85;98943.09;1754233;80;21019;-73
2021/06/14 02:26:45;;;;;;;3.08;1.57;;;;;;;15.48;77.93;98951.06;1747267;80;21347;-74
2021/06/14 02:29:14;;;;;;;4.03;2.10;;;;;;;15.46;77.89;98950.61;1741282;80;21175;-74
2021/06/14 02:31:42;;;;;;;7.78;2.02;;;;;;;15.46;78.05;98950.61;1750737;80;21090;-72
2021/06/14 02:34:10;;;;;;;3.72;2.40;;;;;;;15.47;77.86;98953.62;1738771;81;21004;-73
2021/06/14 02:36:36;;;;;;;3.67;2.30;;;;;;;15.47;77.82;98954.20;1691957;83;21073;-76
2021/06/14 02:39:13;;;;;;;5.70;2.02;;;;;;;15.49;77.95;98960.20;1688866;83;21041;-75
2021/06/14 02:41:40;;;;;;;2.25;1.77;;;;;;;15.47;77.83;98962.53;1701121;83;21164;-73
2021/06/14 02:44:08;;;;;;;3.62;2.05;;;;;;;15.47;77.30;98959.17;1700944;83;21042;-74
2021/06/14 02:46:40;;;;;;;2.22;2.02;;;;;;;15.45;77.45;98962.90;1683150;83;21093;-74
2021/06/14 02:49:07;;;;;;;3.40;1.90;;;;;;;15.45;77.35;98965.09;1696533;83;21123;-73
2021/06/14 02:51:36;;;;;;;3.47;2.77;;;;;;;15.45;76.95;98965.09;1679159;84;21104;-74
2021/06/14 02:54:07;;;;;;;4.00;2.02;;;;;;;15.41;77.00;98966.17;1706306;82;21164;-75
2021/06/14 02:56:39;;;;;;;4.00;1.98;;;;;;;15.38;77.13;98966.34;1698195;83;21087;-77
2021/06/14 02:59:13;;;;;;;6.35;2.35;;;;;;;15.41;77.13;98970.34;1679790;83;21025;-74
2021/06/14 03:01:39;;;;;;;2.98;1.80;;;;;;;15.43;76.97;98959.68;1683438;84;21115;-72
2021/06/14 03:04:06;;;;;;;4.97;2.02;;;;;;;15.45;76.82;98967.88;1690313;83;21125;-73
2021/06/14 03:06:33;;;;;;;2.15;1.50;;;;;;;15.45;76.64;98967.88;1678900;84;21578;-74
2021/06/14 03:09:05;;;;;;;9.28;2.00;;;;;;;15.45;76.72;98967.06;1712468;80;21520;-73
2021/06/14 03:11:32;;;;;;;4.40;2.10;;;;;;;15.46;76.77;98968.66;1746165;80;21011;-74
2021/06/14 03:14:00;;;;;;;2.72;1.98;;;;;;;15.50;76.88;98969.55;1743885;81;21052;-73
2021/06/14 03:16:27;;;;;;;3.52;2.20;;;;;;;15.53;76.69;98966.60;1751528;80;21019;-75
2021/06/14 03:18:55;;;;;;;3.83;2.47;;;;;;;15.54;76.38;98955.73;1755140;80;21136;-75
2021/06/14 03:21:23;;;;;;;6.40;2.90;;;;;;;15.55;76.33;98958.72;1752028;80;21613;-75
2021/06/14 03:23:52;;;;;;;4.25;2.25;;;;;;;15.54;76.24;98959.90;1748292;81;21596;-75
2021/06/14 03:26:20;;;;;;;2.70;2.20;;;;;;;15.52;76.18;98963.05;1744967;80;21060;-75
2021/06/14 03:28:47;;;;;;;3.70;2.27;;;;;;;15.50;76.17;98968.16;1735804;80;21079;-75
2021/06/14 03:31:15;;;;;;;5.37;2.12;;;;;;;15.50;76.40;98976.48;1745514;81;21157;-74
2021/06/14 03:33:45;;;;;;;3.05;2.22;;;;;;;15.53;76.57;98978.52;1752326;80;20984;-73
2021/06/14 03:36:12;;;;;;;8.38;2.20;;;;;;;15.58;76.49;98978.22;1750469;80;21082;-74
2021/06/14 03:38:40;;;;;;;4.10;2.15;;;;;;;15.57;76.44;98973.83;1749569;80;21004;-75
2021/06/14 03:41:07;;;;;;;2.60;2.10;;;;;;;15.62;76.58;98976.09;1753787;80;21026;-74
2021/06/14 03:43:34;;;;;;;3.72;2.22;;;;;;;15.66;76.55;98976.38;1754113;80;21821;-74
2021/06/14 03:46:01;;;;;;;2.42;2.22;;;;;;;15.74;76.49;98977.33;1756590;80;21252;-75
2021/06/14 03:48:29;;;;;;;4.47;2.60;;;;;;;15.78;76.10;98980.95;1755225;80;21103;-74
2021/06/14 03:50:55;;;;;;;2.42;2.00;;;;;;;15.80;75.98;98986.14;1748321;80;21063;-76
2021/06/14 03:53:32;;;;;;;4.55;2.50;;;;;;;15.82;75.74;98996.30;1748926;80;21000;-72
2021/06/14 03:56:07;;;;;;;2.95;2.20;;;;;;;15.84;75.66;98995.35;1720274;80;21455;-75
2021/06/14 03:58:34;;;;;;;5.10;2.08;;;;;;;15.86;75.67;98995.80;1746661;81;21531;-73
2021/06/14 04:01:00;;;;;;;7.12;2.45;;;;;;;15.89;75.79;98994.23;1755646;80;21032;-75
2021/06/14 04:03:28;;;;;;;5.35;2.10;;;;;;;15.90;75.81;98993.08;1753360;80;21603;-74
2021/06/14 04:05:57;;;;;;;5.12;2.45;;;;;;;15.94;75.89;98995.33;1753487;80;21556;-73
2021/06/14 04:08:26;;;;;;;2.85;2.42;;;;;;;16.01;75.85;98997.45;1698983;82;21160;-76
2021/06/14 04:10:53;;;;;;;3.27;2.37;;;;;;;16.13;75.28;98994.50;1686281;83;21070;-73
2021/06/14 04:13:19;;;;;;;2.37;2.10;;;;;;;16.18;74.68;99003.11;1662846;84;21054;-72
2021/06/14 04:15:45;;;;;;;8.00;2.22;;;;;;;16.18;74.72;98996.97;1696994;83;20992;-73
2021/06/14 04:18:12;;;;;;;3.67;2.12;;;;;;;16.24;74.89;99002.22;1698176;83;21008;-74
2021/06/14 04:20:38;;;;;;;3.50;1.98;;;;;;;16.37;75.04;99008.38;1697323;83;21822;-72
2021/06/14 04:23:05;;;;;;;4.20;1.98;;;;;;;16.48;74.68;99007.95;1700662;83;21064;-76
2021/06/14 04:25:31;;;;;;;4.47;2.20;;;;;;;16.53;74.53;99008.25;1698131;83;21012;-76
2021/06/14 04:27:57;;;;;;;4.22;2.22;;;;;;;16.60;74.29;99008.95;1732106;81;21087;-75
2021/06/14 04:30:24;;;;;;;4.83;2.70;;;;;;;16.64;73.95;99015.34;1694365;83;21095;-75
2021/06/14 04:32:50;;;;;;;7.50;2.80;;;;;;;16.69;73.68;99011.44;1702769;83;21597;-77
2021/06/14 04:35:17;;;;;;;5.83;2.58;;;;;;;16.69;73.09;99019.20;1732849;80;21934;-75
2021/06/14 04:37:43;;;;;;;4.22;2.25;;;;;;;16.63;73.30;99026.27;1747137;80;21110;-74
2021/06/14 04:40:10;;;;;;;11.30;3.05;;;;;;;16.62;73.27;99032.41;1701062;83;21123;-76
2021/06/14 04:42:37;;;;;;;10.32;2.42;;;;;;;16.64;73.59;99037.59;1753658;80;21075;-74
2021/06/14 04:45:05;;;;;;;2.75;2.27;;;;;;;16.69;73.46;99037.86;1749464;80;21149;-77
2021/06/14 04:47:31;;;;;;;3.80;2.42;;;;;;;16.77;73.59;99030.64;1734304;80;21040;-76
2021/06/14 04:50:00;;;;;;;3.52;2.10;;;;;;;16.89;73.41;99032.99;1743255;80;22064;-77
2021/06/14 04:52:25;;;;;;;5.12;2.55;;;;;;;17.02;73.31;99039.97;1698418;83;21594;-78
2021/06/14 04:54:52;;;;;;;5.08;2.58;;;;;;;17.17;73.14;99046.33;1705604;83;21010;-75
2021/06/14 04:57:18;;;;;;;5.53;2.67;;;;;;;17.25;72.56;99048.84;1693959;81;21150;-75
2021/06/14 04:59:44;;;;;;;3.62;2.40;;;;;;;17.30;72.37;99049.09;1706109;83;21558;-76
2021/06/14 05:02:11;;;;;;;3.37;2.50;;;;;;;17.38;72.47;99048.61;1704147;82;21010;-74
2021/06/14 05:04:37;;;;;;;5.87;2.85;;;;;;;17.48;72.58;99053.52;1696027;82;21037;-76
2021/06/14 05:07:04;;;;;;;4.47;2.33;;;;;;;17.60;72.37;99055.84;1709140;83;21092;-75
2021/06/14 05:09:31;;;;;;;5.15;2.70;;;;;;;17.66;72.01;99059.88;1704716;83;21209;-75
2021/06/14 05:11:58;;;;;;;2.87;2.55;;;;;;;17.71;71.58;99062.33;1715029;82;21146;-76
2021/06/14 05:14:24;;;;;;;4.40;2.75;;;;;;;17.67;71.68;99060.11;1738950;80;21548;-75
2021/06/14 05:16:51;;;;;;;4.65;2.85;;;;;;;17.70;71.79;99061.31;1734340;80;21130;-72
2021/06/14 05:19:17;;;;;;;4.08;2.42;;;;;;;17.75;71.82;99070.73;1754243;80;21043;-74
2021/06/14 05:21:43;;;;;;;4.17;2.25;;;;;;;17.78;72.03;99064.39;1740821;80;22175;-73
2021/06/14 05:24:10;;;;;;;7.40;3.65;;;;;;;17.81;72.06;99069.20;1734678;81;21091;-75
2021/06/14 05:26:36;;;;;;;4.17;2.70;;;;;;;17.84;71.91;99066.25;1737068;81;21501;-72
2021/06/14 05:29:03;;;;;;;3.87;2.70;;;;;;;17.86;72.10;99068.86;1703142;83;21031;-74
2021/06/14 05:31:29;;;;;;;6.30;2.90;;;;;;;17.94;72.39;99073.94;1711941;83;21761;-74
2021/06/14 05:33:56;;;;;;;7.58;2.62;;;;;;;18.02;72.42;99076.20;1711193;83;21131;-74
2021/06/14 05:36:22;;;;;;;4.15;3.10;;;;;;;18.09;72.60;99067.11;1703583;82;21503;-75
2021/06/14 05:38:48;;;;;;;13.35;3.10;;;;;;;18.19;72.42;99070.63;1677784;83;21032;-73
2021/06/14 05:41:16;;;;;;;7.17;3.35;;;;;;;18.25;71.82;99071.09;1675657;83;21793;-76
2021/06/14 05:43:43;;;;;;;3.27;2.92;;;;;;;18.27;71.52;99073.49;1681720;83;21072;-75
2021/06/14 05:46:10;;;;;;;4.53;3.30;;;;;;;18.27;71.66;99072.09;1679117;82;21217;-76
2021/06/14 05:48:38;;;;;;;8.10;4.25;;;;;;;18.29;71.46;99079.50;1675805;83;21132;-75
2021/06/14 05:51:04;;;;;;;7.08;3.40;;;;;;;18.30;71.45;99081.90;1683019;83;21190;-77
2021/06/14 05:53:32;;;;;;;10.60;3.52;;;;;;;18.32;71.46;99084.30;1695583;84;21209;-74
2021/06/14 05:55:58;;;;;;;7.25;3.42;;;;;;;18.39;71.43;99082.95;1688630;83;21131;-72
2021/06/14 05:58:24;;;;;;;9.00;3.65;;;;;;;18.46;71.53;99085.00;1713825;82;21185;-77
2021/06/14 06:00:51;;;;;;;12.82;4.17;;;;;;;18.56;71.37;99088.48;1696319;83;21084;-73
2021/06/14 06:03:17;;;;;;;5.92;3.08;;;;;;;18.66;71.21;99095.36;1697686;82;21062;-74
2021/06/14 06:05:44;;;;;;;7.08;3.20;;;;;;;18.73;71.10;99097.41;1745770;80;21081;-75
2021/06/14 06:08:10;;;;;;;3.98;3.15;;;;;;;18.73;70.81;99098.80;1738119;81;21043;-74
2021/06/14 06:10:37;;;;;;;3.35;3.05;;;;;;;18.71;70.95;99103.34;1751811;80;21166;-75
2021/06/14 06:13:04;;;;;;;5.42;2.98;;;;;;;18.73;71.12;99109.96;1748096;81;21039;-76
2021/06/14 06:15:30;;;;;;;7.35;3.15;;;;;;;18.78;71.44;99105.39;1731407;80;21309;-73
2021/06/14 06:17:56;;;;;;;8.50;3.15;;;;;;;18.88;71.54;99110.06;1736290;80;21510;-76
2021/06/14 06:20:23;;;;;;;3.90;3.00;;;;;;;18.94;71.42;99113.50;1724599;80;21071;-76
2021/06/14 06:22:49;;;;;;;10.05;3.95;;;;;;;19.01;71.29;99113.34;1744310;80;21153;-77
2021/06/14 06:25:18;;;;;;;4.80;3.12;;;;;;;19.11;71.56;99109.85;1734324;80;21022;-76
2021/06/14 06:27:46;;;;;;;5.08;3.83;;;;;;;19.21;71.20;99120.88;1729247;81;21046;-74
2021/06/14 06:30:13;;;;;;;4.62;3.65;;;;;;;19.31;71.25;99123.55;1743534;80;21099;-76
2021/06/14 06:32:39;;;;;;;5.97;3.50;;;;;;;19.39;71.39;99127.99;1732940;80;21424;-77
2021/06/14 06:35:07;;;;;;;10.60;3.72;;;;;;;19.40;70.96;99122.59;1745414;81;21155;-74
2021/06/14 06:37:34;;;;;;;6.10;2.95;;;;;;;19.40;70.73;99125.39;1730447;80;21035;-74
2021/06/14 06:40:00;;;;;;;5.60;3.47;;;;;;;19.41;70.68;99121.42;1741962;80;21023;-75
2021/06/14 06:42:27;;;;;;;4.20;3.42;;;;;;;19.43;70.38;99121.81;1739779;80;21075;-77
2021/06/14 06:44:55;;;;;;;4.08;3.45;;;;;;;19.42;70.48;99127.20;1739696;80;21023;-75
2021/06/14 06:47:21;;;;;;;5.03;3.20;;;;;;;19.42;70.40;99120.81;1738826;80;21848;-76
2021/06/14 06:49:49;;;;;;;4.25;2.77;;;;;;;19.41;70.60;99131.20;1742893;80;21117;-74
2021/06/14 06:52:20;;;;;;;5.70;2.98;;;;;;;19.43;70.53;99135.78;1708883;82;21024;-76
2021/06/14 06:54:46;;;;;;;5.62;3.08;;;;;;;19.45;70.45;99148.77;1749064;80;21094;-76
2021/06/14 06:57:14;;;;;;;6.15;3.45;;;;;;;19.47;70.50;99144.19;1735610;80;21067;-75
2021/06/14 06:59:42;;;;;;;3.87;3.22;;;;;;;19.53;70.60;99153.01;1737514;80;21938;-75
2021/06/14 07:02:09;;;;;;;3.15;2.85;;;;;;;19.57;70.27;99149.63;1738425;80;21021;-75
2021/06/14 07:04:37;;;;;;;5.65;3.95;;;;;;;19.61;69.99;99153.83;1749247;80;21000;-75
2021/06/14 07:07:05;;;;;;;5.58;3.58;;;;;;;19.68;70.24;99160.86;1751952;80;20991;-73
2021/06/14 07:09:33;;;;;;;4.75;3.95;;;;;;;19.77;70.36;99156.32;1739562;80;21696;-75
2021/06/14 07:12:01;;;;;;;5.62;3.92;;;;;;;19.92;70.40;99158.58;1736330;80;21163;-76
2021/06/14 07:14:27;;;;;;;4.70;3.52;;;;;;;20.07;70.07;99153.88;1735887;80;21047;-75
2021/06/14 07:16:53;;;;;;;3.98;3.20;;;;;;;20.21;69.58;99158.71;1741687;81;21102;-75
2021/06/14 07:19:20;;;;;;;5.00;3.08;;;;;;;20.34;69.62;99170.33;1738837;80;21190;-76
2021/06/14 07:21:46;;;;;;;12.65;4.17;;;;;;;20.45;69.04;99161.16;1737294;80;21596;-76
2021/06/14 07:24:12;;;;;;;7.42;3.87;;;;;;;20.54;68.76;99172.16;1742575;80;21661;-78
2021/06/14 07:26:39;;;;;;;10.38;4.37;;;;;;;20.60;68.42;99166.98;1741947;80;21101;-74
2021/06/14 07:29:05;;;;;;;10.03;3.80;;;;;;;20.65;68.49;99170.80;1739816;80;21463;-75
2021/06/14 07:31:32;;;;;;;6.75;3.85;;;;;;;20.72;68.25;99167.20;1735612;80;21038;-75
2021/06/14 07:34:01;;;;;;;8.35;4.20;;;;;;;20.78;67.84;99167.59;1701862;81;21021;-72
2021/06/14 07:36:26;;;;;;;7.87;3.50;;;;;;;20.82;68.01;99171.79;1698676;82;21224;-74
2021/06/14 07:38:54;;;;;;;5.58;3.35;;;;;;;20.90;68.01;99174.20;1741337;80;20988;-74
2021/06/14 07:41:21;;;;;;;9.25;3.58;;;;;;;21.00;68.15;99181.65;1684126;82;21058;-75
2021/06/14 07:43:48;;;;;;;4.55;3.17;;;;;;;21.12;68.23;99188.84;1683775;82;21002;-78
2021/06/14 07:46:15;;;;;;;5.28;3.40;;;;;;;21.25;68.17;99194.23;1745583;80;21034;-73
2021/06/14 07:48:41;;;;;;;7.25;3.67;;;;;;;21.36;67.67;99186.42;1744399;80;21734;-75
2021/06/14 07:51:09;;;;;;;10.75;3.77;;;;;;;21.42;66.64;99191.81;1737322;81;21158;-74
2021/06/14 07:53:36;;;;;;;11.25;4.72;;;;;;;21.34;65.87;99185.41;1741278;80;21103;-75
2021/06/14 07:56:06;;;;;;;5.12;3.25;;;;;;;21.30;66.08;99188.83;1741683;80;21532;-73
2021/06/14 07:58:32;;;;;;;9.83;3.98;;;;;;;21.23;65.66;99191.63;1738533;81;20978;-73
2021/06/14 08:01:00;;;;;;;5.03;3.15;;;;;;;21.21;66.11;99188.42;1744595;81;21576;-76
2021/06/14 08:03:29;;;;;;;7.65;5.83;;;;;;;21.29;66.34;99191.41;1749653;80;21513;-72
2021/06/14 08:05:55;;;;;;;12.55;4.33;;;;;;;21.28;65.94;99185.03;1738349;80;21052;-73
2021/06/14 08:08:21;;;;;;;7.75;3.45;;;;;;;21.18;65.54;99187.83;1750200;80;21071;-74
2021/06/14 08:10:49;;;;;;;13.00;3.52;;;;;;;21.09;66.00;99182.62;1748542;80;21129;-76
2021/06/14 08:13:16;;;;;;;5.03;3.08;;;;;;;21.16;66.55;99193.83;1754863;80;22190;-75
2021/06/14 08:15:42;;;;;;;5.67;3.05;;;;;;;21.29;66.36;99188.61;1746583;80;21027;-72
2021/06/14 08:25:03;;;;;;;9.75;4.03;;;;;;;21.68;65.91;99202.38;1741630;80;21016;-73
2021/06/14 08:26:05;;;;;;;15.33;3.40;;;;;;;21.76;65.36;99207.34;1747844;81;22095;-74
2021/06/14 08:28:31;;;;;;;8.43;3.15;;;;;;;21.79;65.17;99212.77;1754251;80;21512;-75
2021/06/14 08:30:58;;;;;;;4.87;3.22;;;;;;;21.81;65.07;99212.57;1736355;81;21012;-73
2021/06/14 08:33:24;;;;;;;4.80;3.40;;;;;;;21.92;65.31;99220.93;1690667;83;21033;-72
2021/06/14 08:35:51;;;;;;;6.05;3.50;;;;;;;22.09;65.24;99221.30;1756200;80;21054;-75
2021/06/14 08:38:18;;;;;;;5.42;3.15;;;;;;;22.28;65.10;99226.23;1733301;80;21757;-73
2021/06/14 08:40:44;;;;;;;6.70;3.70;;;;;;;22.44;64.76;99227.14;1745920;80;21030;-75
2021/06/14 08:43:10;;;;;;;7.97;3.52;;;;;;;22.60;64.83;99231.66;1742009;80;21028;-73
2021/06/14 08:45:40;;;;;;;7.37;3.72;;;;;;;22.76;64.70;99232.42;1749844;80;21158;-73
2021/06/14 08:48:09;;;;;;;6.87;3.98;;;;;;;22.90;65.14;99237.11;1733867;80;21062;-72
2021/06/14 08:50:35;;;;;;;8.60;3.27;;;;;;;23.00;63.36;99242.48;1751504;80;21149;-75
2021/06/14 08:53:03;;;;;;;5.03;3.35;;;;;;;23.06;63.77;99245.84;1746367;81;21041;-75
2021/06/14 08:55:30;;;;;;;5.95;2.92;;;;;;;23.24;64.25;99249.10;1748920;80;21035;-74
2021/06/14 08:57:58;;;;;;;5.55;2.90;;;;;;;23.44;63.43;99245.77;1746002;81;21032;-76
2021/06/14 09:00:26;;;;;;;3.15;2.40;;;;;;;23.48;61.43;99248.52;1754599;80;21078;-73
2021/06/14 09:02:53;;;;;;;8.58;3.25;;;;;;;23.42;61.09;99253.81;1753771;80;21314;-76
2021/06/14 09:05:21;;;;;;;3.15;2.85;;;;;;;23.41;61.28;99264.84;1749375;80;21013;-75
2021/06/14 09:07:50;;;;;;;6.25;2.85;;;;;;;23.39;61.30;99261.02;1744061;80;21059;-75
2021/06/14 09:10:34;;;;;;;9.85;3.55;;;;;;;23.45;62.35;99265.02;1747715;80;21102;-76
2021/06/14 09:13:20;;;;;;;9.65;3.00;;;;;;;23.60;62.52;99270.50;1706134;82;21232;-76
2021/06/14 09:15:50;;;;;;;5.25;3.15;;;;;;;23.63;60.54;99272.48;1746417;80;21199;-76
2021/06/14 09:18:25;;;;;;;12.18;3.00;;;;;;;23.57;60.57;99277.77;1736834;80;21071;-76
2021/06/14 09:21:08;;;;;;;8.48;4.12;;;;;;;23.46;60.47;99274.23;1748087;81;21509;-73
2021/06/14 09:24:05;;;;;;;7.62;2.85;;;;;;;23.40;61.26;99272.50;1747222;80;21055;-72
2021/06/14 09:26:38;;;;;;;6.53;2.95;;;;;;;23.49;62.15;99269.81;1754690;80;21106;-73
2021/06/14 09:29:15;;;;;;;4.92;2.83;;;;;;;23.74;62.06;99274.39;1744865;80;21162;-76
2021/06/14 09:31:50;;;;;;;5.47;3.42;;;;;;;23.93;61.06;99270.19;1751158;81;21118;-75
2021/06/14 09:34:17;;;;;;;5.95;3.27;;;;;;;23.98;60.54;99272.55;1741923;80;21540;-73
2021/06/14 09:36:56;;;;;;;8.45;2.80;;;;;;;23.98;60.50;99275.95;1735781;80;21071;-75
2021/06/14 09:39:23;;;;;;;2.42;2.17;;;;;;;24.01;60.46;99271.70;1754440;80;21000;-75
2021/06/14 09:41:52;;;;;;;3.05;2.10;;;;;;;24.13;59.93;99279.41;1754765;80;21108;-73
2021/06/14 09:44:32;;;;;;;3.40;2.37;;;;;;;24.26;60.06;99279.07;1751554;80;21032;-73
2021/06/14 09:47:04;;;;;;;2.90;2.12;;;;;;;24.36;59.74;99281.56;1753037;80;21081;-75
2021/06/14 09:49:33;;;;;;;2.72;2.45;;;;;;;24.40;59.16;99283.73;1735387;80;21726;-74
2021/06/14 09:52:00;;;;;;;4.17;2.85;;;;;;;24.42;58.42;99279.89;1753804;80;21047;-73
2021/06/14 09:54:30;;;;;;;4.35;2.35;;;;;;;24.40;58.93;99287.15;1738221;81;21108;-74
2021/06/14 09:56:59;;;;;;;3.98;3.02;;;;;;;24.41;58.75;99285.95;1740835;80;21091;-74
2021/06/14 09:59:30;;;;;;;5.15;2.47;;;;;;;24.42;59.29;99283.31;1746910;80;21008;-76
2021/06/14 10:02:17;;;;;;;3.95;1.92;;;;;;;24.46;59.40;99285.48;1746084;80;21015;-74
2021/06/14 10:04:47;;;;;;;4.25;2.80;;;;;;;24.52;58.07;99282.38;1744595;81;21031;-72
2021/06/14 10:07:16;;;;;;;5.17;2.25;;;;;;;24.57;58.69;99288.14;1694854;82;23187;-74
2021/06/14 10:09:51;;;;;;;5.80;2.02;;;;;;;24.60;57.17;99289.33;1711894;83;21058;-74
2021/06/14 10:12:26;;;;;;;3.17;2.58;;;;;;;24.53;56.50;99293.04;1685207;82;21156;-74
2021/06/14 10:14:55;;;;;;;2.75;2.27;;;;;;;24.46;56.81;99287.49;1695649;83;21685;-74
2021/06/14 10:17:38;;;;;;;6.80;2.70;;;;;;;24.46;57.59;99282.67;1739231;81;21008;-75
2021/06/14 10:20:12;;;;;;;4.70;2.50;;;;;;;24.60;58.40;99284.48;1734167;80;21182;-75
2021/06/14 10:22:40;;;;;;;7.75;2.77;;;;;;;24.75;57.59;99293.55;1749112;80;21482;-74
2021/06/14 10:25:11;;;;;;;3.12;2.67;;;;;;;24.82;57.18;99293.25;1745820;81;21045;-74
2021/06/14 10:27:38;;;;;;;6.17;2.50;;;;;;;24.85;57.50;99294.62;1740653;80;21008;-72
2021/06/14 10:30:08;;;;;;;3.33;2.37;;;;;;;24.92;58.22;99295.16;1745091;81;21036;-71
2021/06/14 10:32:37;;;;;;;2.47;2.20;;;;;;;25.00;57.83;99297.24;1744052;81;21165;-75
2021/06/14 10:35:04;;;;;;;5.87;2.47;;;;;;;25.05;57.03;99298.17;1745087;80;21145;-74
2021/06/14 10:37:31;;;;;;;3.22;2.17;;;;;;;25.11;57.46;99296.45;1720898;81;21055;-72
2021/06/14 10:39:58;;;;;;;3.25;2.65;;;;;;;25.17;56.67;99291.15;1739775;80;21615;-76
2021/06/14 10:42:24;;;;;;;4.28;2.10;;;;;;;25.22;56.40;99287.05;1733818;81;21132;-71
2021/06/14 10:44:51;;;;;;;8.53;2.05;;;;;;;25.32;55.46;99286.71;1745782;81;21912;-76
2021/06/14 10:47:18;;;;;;;6.95;1.72;;;;;;;25.38;55.20;99287.20;1742854;81;21055;-72
2021/06/14 10:49:46;;;;;;;4.60;2.05;;;;;;;25.43;55.00;99280.27;1738625;81;21100;-74
2021/06/14 10:52:13;;;;;;;2.83;2.12;;;;;;;25.39;54.38;99283.15;1694527;80;21571;-70
2021/06/14 10:54:44;;;;;;;4.83;1.95;;;;;;;25.31;53.70;99283.69;1695057;81;21055;-72
2021/06/14 10:57:12;;;;;;;4.87;2.10;;;;;;;25.21;53.73;99282.04;1706212;82;22103;-73
2021/06/14 10:59:44;;;;;;;3.00;1.82;;;;;;;25.15;54.22;99272.45;1707076;83;21558;-73
2021/06/14 11:02:12;;;;;;;7.15;2.08;;;;;;;25.12;54.04;99283.17;1704403;83;21031;-73
2021/06/14 11:04:39;;;;;;;3.00;1.85;;;;;;;25.14;54.21;99284.97;1742364;80;22131;-73
2021/06/14 11:07:05;;;;;;;5.42;2.00;;;;;;;25.17;53.99;99286.92;1746098;80;21060;-72
2021/06/14 11:09:45;;;;;;;5.25;2.35;;;;;;;25.19;54.96;99287.30;1754239;80;21992;-71
2021/06/14 11:12:28;;;;;;;3.52;1.80;;;;;;;25.26;55.33;99281.56;1742783;80;21005;-73
2021/06/14 11:14:55;;;;;;;6.85;2.33;;;;;;;25.35;56.10;99284.44;1695730;83;28264;-72
2021/06/14 11:17:24;;;;;;;4.15;2.25;;;;;;;25.50;56.06;99283.58;1705652;82;21198;-73
2021/06/14 11:20:07;;;;;;;4.70;2.10;;;;;;;25.64;55.23;99280.53;1751849;81;21019;-73
2021/06/14 11:22:41;;;;;;;9.83;2.27;;;;;;;25.78;54.94;99283.54;1739769;81;21242;-74
2021/06/14 11:25:25;;;;;;;5.60;2.08;;;;;;;25.84;54.33;99285.43;1748715;80;21092;-73
2021/06/14 11:27:51;;;;;;;4.25;1.80;;;;;;;25.87;54.22;99279.52;1696666;83;21100;-74
2021/06/14 11:30:28;;;;;;;4.15;1.98;;;;;;;26.06;53.31;99281.39;1692096;83;21073;-75
2021/06/14 11:32:56;;;;;;;5.28;2.35;;;;;;;26.15;53.32;99289.28;1696172;81;21016;-75
2021/06/14 11:35:22;;;;;;;4.58;1.87;;;;;;;26.17;52.47;99287.61;1667187;84;21554;-74
2021/06/14 11:37:51;;;;;;;4.12;2.58;;;;;;;26.17;52.34;99284.01;1657626;83;21028;-75
2021/06/14 11:40:24;;;;;;;15.20;2.45;;;;;;;26.17;52.88;99281.97;1691598;84;21021;-74
2021/06/14 11:42:54;;;;;;;3.40;1.85;;;;;;;26.14;52.33;99277.19;1677325;84;21014;-73
2021/06/14 11:47:52;;;;;;;3.10;1.90;;;;;;;26.33;52.46;99276.21;1838090;78;22734;-74
2021/06/14 11:50:27;;;;;;;8.13;2.10;;;;;;;26.37;52.33;99276.97;1819246;78;20969;-72
2021/06/14 11:53:02;;;;;;;2.80;2.10;;;;;;;26.40;52.41;99270.45;1816087;78;21134;-75